Terminal Aerodrome Forecast
Issued by NWS Wichita, KS

Home | Current Version | Previous Version | Graphics & Text | Print | Product List | Glossary On
Versions: 1 2 3 4 5 6 7 8 9 10 11 12 13 14 15 16 17 18 19 20 21
080
FTUS43 KICT 170542
TAFICT
TAF
KICT 170542Z 1706/1806 31008KT P6SM OVC008
      TEMPO 1706/1707 P6SM -DZ
     FM171100 31008KT P6SM OVC015
     FM171200 31008KT P6SM OVC025
     FM171400 32006KT P6SM BKN035 OVC080
     FM172200 29006KT P6SM SCT100=

USA.gov is the U.S. government's official web portal to all federal, state and local government web resources and services.